sensor_id;sensor_type;location;lat;lon;timestamp;P1;durP1;ratioP1;P2;durP2;ratioP2
253;SDS011;590;48.772;8.846;2023-03-01T00:00:11;7.83;;;7.43;;
253;SDS011;590;48.772;8.846;2023-03-01T00:02:40;7.67;;;7.27;;
253;SDS011;590;48.772;8.846;2023-03-01T00:05:08;7.30;;;6.90;;
253;SDS011;590;48.772;8.846;2023-03-01T00:07:36;7.07;;;6.67;;
253;SDS011;590;48.772;8.846;2023-03-01T00:10:05;7.63;;;7.23;;
253;SDS011;590;48.772;8.846;2023-03-01T00:12:33;7.20;;;6.80;;
253;SDS011;590;48.772;8.846;2023-03-01T00:15:04;7.30;;;6.90;;
253;SDS011;590;48.772;8.846;2023-03-01T00:17:33;7.30;;;6.90;;
253;SDS011;590;48.772;8.846;2023-03-01T00:20:01;7.20;;;6.80;;
253;SDS011;590;48.772;8.846;2023-03-01T00:22:32;6.63;;;6.23;;
253;SDS011;590;48.772;8.846;2023-03-01T00:25:00;7.10;;;6.70;;
253;SDS011;590;48.772;8.846;2023-03-01T00:27:28;7.17;;;6.77;;
253;SDS011;590;48.772;8.846;2023-03-01T00:29:56;7.33;;;6.93;;
253;SDS011;590;48.772;8.846;2023-03-01T00:32:25;7.30;;;6.90;;
253;SDS011;590;48.772;8.846;2023-03-01T00:34:53;7.50;;;7.10;;
253;SDS011;590;48.772;8.846;2023-03-01T00:37:21;7.03;;;6.63;;
253;SDS011;590;48.772;8.846;2023-03-01T00:39:50;6.67;;;6.27;;
253;SDS011;590;48.772;8.846;2023-03-01T00:42:18;7.83;;;7.43;;
253;SDS011;590;48.772;8.846;2023-03-01T00:44:46;7.40;;;7.00;;
253;SDS011;590;48.772;8.846;2023-03-01T00:47:14;7.50;;;7.10;;
253;SDS011;590;48.772;8.846;2023-03-01T00:49:43;7.40;;;7.00;;
253;SDS011;590;48.772;8.846;2023-03-01T00:52:12;7.60;;;7.20;;
253;SDS011;590;48.772;8.846;2023-03-01T00:54:40;6.80;;;6.40;;
253;SDS011;590;48.772;8.846;2023-03-01T00:57:08;7.20;;;6.80;;
253;SDS011;590;48.772;8.846;2023-03-01T00:59:36;6.73;;;6.33;;
253;SDS011;590;48.772;8.846;2023-03-01T01:02:04;7.13;;;6.73;;
253;SDS011;590;48.772;8.846;2023-03-01T01:04:32;7.20;;;6.80;;
253;SDS011;590;48.772;8.846;2023-03-01T01:07:01;7.23;;;6.83;;
253;SDS011;590;48.772;8.846;2023-03-01T01:09:29;7.53;;;7.13;;
253;SDS011;590;48.772;8.846;2023-03-01T01:11:58;8.63;;;8.13;;
253;SDS011;590;48.772;8.846;2023-03-01T01:14:26;6.73;;;6.33;;
253;SDS011;590;48.772;8.846;2023-03-01T01:16:54;7.53;;;7.13;;
253;SDS011;590;48.772;8.846;2023-03-01T01:19:23;7.70;;;7.30;;
253;SDS011;590;48.772;8.846;2023-03-01T01:21:52;8.23;;;7.83;;
253;SDS011;590;48.772;8.846;2023-03-01T01:24:21;6.77;;;6.37;;
253;SDS011;590;48.772;8.846;2023-03-01T01:26:49;7.00;;;6.60;;
253;SDS011;590;48.772;8.846;2023-03-01T01:29:18;4.87;;;4.57;;
253;SDS011;590;48.772;8.846;2023-03-01T01:31:46;7.50;;;7.10;;
253;SDS011;590;48.772;8.846;2023-03-01T01:34:15;7.77;;;7.37;;
253;SDS011;590;48.772;8.846;2023-03-01T01:36:47;6.90;;;6.50;;
253;SDS011;590;48.772;8.846;2023-03-01T01:39:16;7.57;;;7.17;;
253;SDS011;590;48.772;8.846;2023-03-01T01:41:46;7.20;;;6.80;;
253;SDS011;590;48.772;8.846;2023-03-01T01:44:18;7.27;;;6.87;;
253;SDS011;590;48.772;8.846;2023-03-01T01:46:49;6.97;;;6.57;;
253;SDS011;590;48.772;8.846;2023-03-01T01:49:25;7.23;;;6.83;;
253;SDS011;590;48.772;8.846;2023-03-01T01:51:57;7.23;;;6.83;;
253;SDS011;590;48.772;8.846;2023-03-01T01:54:35;6.80;;;6.40;;
253;SDS011;590;48.772;8.846;2023-03-01T01:57:14;6.97;;;6.57;;
253;SDS011;590;48.772;8.846;2023-03-01T01:59:45;6.70;;;6.30;;
253;SDS011;590;48.772;8.846;2023-03-01T02:02:17;7.93;;;7.53;;
253;SDS011;590;48.772;8.846;2023-03-01T02:04:46;7.20;;;6.80;;
253;SDS011;590;48.772;8.846;2023-03-01T02:07:16;6.90;;;6.50;;
253;SDS011;590;48.772;8.846;2023-03-01T02:09:47;7.27;;;6.87;;
253;SDS011;590;48.772;8.846;2023-03-01T02:12:19;7.07;;;6.67;;
253;SDS011;590;48.772;8.846;2023-03-01T02:14:51;7.60;;;7.20;;
253;SDS011;590;48.772;8.846;2023-03-01T02:17:19;7.00;;;6.60;;
253;SDS011;590;48.772;8.846;2023-03-01T02:19:52;7.00;;;6.60;;
253;SDS011;590;48.772;8.846;2023-03-01T02:22:28;6.90;;;6.50;;
253;SDS011;590;48.772;8.846;2023-03-01T02:25:02;6.57;;;6.17;;
253;SDS011;590;48.772;8.846;2023-03-01T02:27:40;7.37;;;6.97;;
253;SDS011;590;48.772;8.846;2023-03-01T02:30:17;7.27;;;6.87;;
253;SDS011;590;48.772;8.846;2023-03-01T02:32:47;7.07;;;6.67;;
253;SDS011;590;48.772;8.846;2023-03-01T02:35:16;7.47;;;7.07;;
253;SDS011;590;48.772;8.846;2023-03-01T02:37:46;6.90;;;6.50;;
253;SDS011;590;48.772;8.846;2023-03-01T02:40:16;7.00;;;6.60;;
253;SDS011;590;48.772;8.846;2023-03-01T02:42:49;6.47;;;6.07;;
253;SDS011;590;48.772;8.846;2023-03-01T02:45:21;7.20;;;6.80;;
253;SDS011;590;48.772;8.846;2023-03-01T02:47:50;7.07;;;6.67;;
253;SDS011;590;48.772;8.846;2023-03-01T02:50:27;7.40;;;7.00;;
253;SDS011;590;48.772;8.846;2023-03-01T02:53:15;7.00;;;6.60;;
253;SDS011;590;48.772;8.846;2023-03-01T02:55:49;7.03;;;6.63;;
253;SDS011;590;48.772;8.846;2023-03-01T02:58:17;8.23;;;7.83;;
253;SDS011;590;48.772;8.846;2023-03-01T03:00:47;6.83;;;6.43;;
253;SDS011;590;48.772;8.846;2023-03-01T03:03:16;7.37;;;6.97;;
253;SDS011;590;48.772;8.846;2023-03-01T03:05:44;6.67;;;6.27;;
253;SDS011;590;48.772;8.846;2023-03-01T03:08:14;7.80;;;7.40;;
253;SDS011;590;48.772;8.846;2023-03-01T03:10:50;7.20;;;6.80;;
253;SDS011;590;48.772;8.846;2023-03-01T03:13:19;6.93;;;6.53;;
253;SDS011;590;48.772;8.846;2023-03-01T03:15:51;7.43;;;7.03;;
253;SDS011;590;48.772;8.846;2023-03-01T03:18:26;6.90;;;6.50;;
253;SDS011;590;48.772;8.846;2023-03-01T03:21:19;6.67;;;6.27;;
253;SDS011;590;48.772;8.846;2023-03-01T03:23:47;7.00;;;6.60;;
253;SDS011;590;48.772;8.846;2023-03-01T03:26:19;6.97;;;6.57;;
253;SDS011;590;48.772;8.846;2023-03-01T03:28:47;6.47;;;6.07;;
253;SDS011;590;48.772;8.846;2023-03-01T03:31:19;6.83;;;6.43;;
253;SDS011;590;48.772;8.846;2023-03-01T03:33:49;7.00;;;6.60;;
253;SDS011;590;48.772;8.846;2023-03-01T03:36:18;7.00;;;6.60;;
253;SDS011;590;48.772;8.846;2023-03-01T03:38:47;6.60;;;6.20;;
253;SDS011;590;48.772;8.846;2023-03-01T03:41:16;7.10;;;6.70;;
253;SDS011;590;48.772;8.846;2023-03-01T03:43:44;7.70;;;7.30;;
253;SDS011;590;48.772;8.846;2023-03-01T03:46:12;6.87;;;6.47;;
253;SDS011;590;48.772;8.846;2023-03-01T03:48:42;8.00;;;7.60;;
253;SDS011;590;48.772;8.846;2023-03-01T03:51:12;6.73;;;6.33;;
253;SDS011;590;48.772;8.846;2023-03-01T03:53:42;6.77;;;6.37;;
253;SDS011;590;48.772;8.846;2023-03-01T03:56:11;6.27;;;5.93;;
253;SDS011;590;48.772;8.846;2023-03-01T03:58:42;7.60;;;7.20;;
253;SDS011;590;48.772;8.846;2023-03-01T04:01:11;7.43;;;7.03;;
253;SDS011;590;48.772;8.846;2023-03-01T04:03:42;7.30;;;6.90;;
253;SDS011;590;48.772;8.846;2023-03-01T04:06:13;7.70;;;7.30;;
253;SDS011;590;48.772;8.846;2023-03-01T04:08:41;7.10;;;6.70;;
253;SDS011;590;48.772;8.846;2023-03-01T04:11:09;6.70;;;6.30;;
253;SDS011;590;48.772;8.846;2023-03-01T04:13:54;7.60;;;7.20;;
253;SDS011;590;48.772;8.846;2023-03-01T04:16:24;7.20;;;6.80;;
253;SDS011;590;48.772;8.846;2023-03-01T04:18:53;7.13;;;6.73;;
253;SDS011;590;48.772;8.846;2023-03-01T04:21:25;7.10;;;6.70;;
253;SDS011;590;48.772;8.846;2023-03-01T04:23:53;6.90;;;6.50;;
253;SDS011;590;48.772;8.846;2023-03-01T04:26:23;7.17;;;6.77;;
253;SDS011;590;48.772;8.846;2023-03-01T04:28:51;7.50;;;7.10;;
253;SDS011;590;48.772;8.846;2023-03-01T04:31:19;7.33;;;6.93;;
253;SDS011;590;48.772;8.846;2023-03-01T04:33:49;7.20;;;6.80;;
253;SDS011;590;48.772;8.846;2023-03-01T04:36:20;7.70;;;7.30;;
253;SDS011;590;48.772;8.846;2023-03-01T04:38:53;7.00;;;6.60;;
253;SDS011;590;48.772;8.846;2023-03-01T04:41:24;7.00;;;6.60;;
253;SDS011;590;48.772;8.846;2023-03-01T04:43:53;7.47;;;7.07;;
253;SDS011;590;48.772;8.846;2023-03-01T04:46:42;6.70;;;6.30;;
253;SDS011;590;48.772;8.846;2023-03-01T04:49:50;7.17;;;6.77;;
253;SDS011;590;48.772;8.846;2023-03-01T04:53:01;7.07;;;6.67;;
253;SDS011;590;48.772;8.846;2023-03-01T04:59:00;7.90;;;7.50;;
253;SDS011;590;48.772;8.846;2023-03-01T05:01:58;7.50;;;7.10;;
253;SDS011;590;48.772;8.846;2023-03-01T05:04:47;6.93;;;6.53;;
253;SDS011;590;48.772;8.846;2023-03-01T05:11:51;7.37;;;6.97;;
253;SDS011;590;48.772;8.846;2023-03-01T05:14:19;7.30;;;6.90;;
253;SDS011;590;48.772;8.846;2023-03-01T05:16:48;7.20;;;6.80;;
253;SDS011;590;48.772;8.846;2023-03-01T05:19:16;7.80;;;7.40;;
253;SDS011;590;48.772;8.846;2023-03-01T05:21:49;6.97;;;6.57;;
253;SDS011;590;48.772;8.846;2023-03-01T05:24:31;7.87;;;7.47;;
253;SDS011;590;48.772;8.846;2023-03-01T05:27:23;8.60;;;8.10;;
253;SDS011;590;48.772;8.846;2023-03-01T05:30:14;7.30;;;6.90;;
253;SDS011;590;48.772;8.846;2023-03-01T05:32:46;7.53;;;7.13;;
253;SDS011;590;48.772;8.846;2023-03-01T05:35:17;7.30;;;6.90;;
253;SDS011;590;48.772;8.846;2023-03-01T05:37:49;7.47;;;7.07;;
253;SDS011;590;48.772;8.846;2023-03-01T05:40:21;6.70;;;6.30;;
253;SDS011;590;48.772;8.846;2023-03-01T05:42:53;8.13;;;7.73;;
253;SDS011;590;48.772;8.846;2023-03-01T05:45:23;8.17;;;7.77;;
253;SDS011;590;48.772;8.846;2023-03-01T05:47:55;7.60;;;7.20;;
253;SDS011;590;48.772;8.846;2023-03-01T05:50:26;8.43;;;7.97;;
253;SDS011;590;48.772;8.846;2023-03-01T05:53:05;7.20;;;6.80;;
253;SDS011;590;48.772;8.846;2023-03-01T05:58:57;7.20;;;6.80;;
253;SDS011;590;48.772;8.846;2023-03-01T06:01:27;8.60;;;8.10;;
253;SDS011;590;48.772;8.846;2023-03-01T06:04:04;8.00;;;7.60;;
253;SDS011;590;48.772;8.846;2023-03-01T06:06:51;7.43;;;7.03;;
253;SDS011;590;48.772;8.846;2023-03-01T06:09:19;7.03;;;6.63;;
253;SDS011;590;48.772;8.846;2023-03-01T06:11:48;7.50;;;7.10;;
253;SDS011;590;48.772;8.846;2023-03-01T06:14:34;8.20;;;7.80;;
253;SDS011;590;48.772;8.846;2023-03-01T06:17:04;7.53;;;7.13;;
253;SDS011;590;48.772;8.846;2023-03-01T06:19:41;9.30;;;8.80;;
253;SDS011;590;48.772;8.846;2023-03-01T06:22:14;8.57;;;8.07;;
253;SDS011;590;48.772;8.846;2023-03-01T06:24:42;8.17;;;7.77;;
253;SDS011;590;48.772;8.846;2023-03-01T06:27:35;6.83;;;6.43;;
253;SDS011;590;48.772;8.846;2023-03-01T06:30:08;8.03;;;7.63;;
253;SDS011;590;48.772;8.846;2023-03-01T06:32:46;7.50;;;7.10;;
253;SDS011;590;48.772;8.846;2023-03-01T06:35:15;7.67;;;7.27;;
253;SDS011;590;48.772;8.846;2023-03-01T06:37:44;8.30;;;7.90;;
253;SDS011;590;48.772;8.846;2023-03-01T06:40:13;7.60;;;7.20;;
253;SDS011;590;48.772;8.846;2023-03-01T06:42:42;9.20;;;8.70;;
253;SDS011;590;48.772;8.846;2023-03-01T06:45:16;8.70;;;8.20;;
253;SDS011;590;48.772;8.846;2023-03-01T06:47:45;7.23;;;6.83;;
253;SDS011;590;48.772;8.846;2023-03-01T06:50:13;8.17;;;7.77;;
253;SDS011;590;48.772;8.846;2023-03-01T06:52:42;8.80;;;8.30;;
253;SDS011;590;48.772;8.846;2023-03-01T06:55:11;9.30;;;8.80;;
253;SDS011;590;48.772;8.846;2023-03-01T06:57:40;8.90;;;8.40;;
253;SDS011;590;48.772;8.846;2023-03-01T07:00:08;9.47;;;8.97;;
253;SDS011;590;48.772;8.846;2023-03-01T07:02:39;10.07;;;9.57;;
253;SDS011;590;48.772;8.846;2023-03-01T07:05:07;9.70;;;9.20;;
253;SDS011;590;48.772;8.846;2023-03-01T07:07:35;10.83;;;10.23;;
253;SDS011;590;48.772;8.846;2023-03-01T07:10:03;11.13;;;10.53;;
253;SDS011;590;48.772;8.846;2023-03-01T07:12:32;11.00;;;10.40;;
253;SDS011;590;48.772;8.846;2023-03-01T07:15:00;11.30;;;10.70;;
253;SDS011;590;48.772;8.846;2023-03-01T07:17:28;11.77;;;11.17;;
253;SDS011;590;48.772;8.846;2023-03-01T07:19:57;12.20;;;11.60;;
253;SDS011;590;48.772;8.846;2023-03-01T07:22:25;12.70;;;12.03;;
253;SDS011;590;48.772;8.846;2023-03-01T07:24:53;12.57;;;11.93;;
253;SDS011;590;48.772;8.846;2023-03-01T07:27:21;11.33;;;10.73;;
253;SDS011;590;48.772;8.846;2023-03-01T07:29:49;13.20;;;12.50;;
253;SDS011;590;48.772;8.846;2023-03-01T07:32:17;12.40;;;11.80;;
253;SDS011;590;48.772;8.846;2023-03-01T07:34:45;12.40;;;11.80;;
253;SDS011;590;48.772;8.846;2023-03-01T07:37:15;12.10;;;11.50;;
253;SDS011;590;48.772;8.846;2023-03-01T07:39:43;13.60;;;12.90;;
253;SDS011;590;48.772;8.846;2023-03-01T07:42:11;11.60;;;11.00;;
253;SDS011;590;48.772;8.846;2023-03-01T07:44:39;12.97;;;12.27;;
253;SDS011;590;48.772;8.846;2023-03-01T07:47:07;13.00;;;12.30;;
253;SDS011;590;48.772;8.846;2023-03-01T07:49:35;12.10;;;11.50;;
253;SDS011;590;48.772;8.846;2023-03-01T07:52:03;13.30;;;12.60;;
253;SDS011;590;48.772;8.846;2023-03-01T07:54:33;13.77;;;13.07;;
253;SDS011;590;48.772;8.846;2023-03-01T07:57:01;14.07;;;13.37;;
253;SDS011;590;48.772;8.846;2023-03-01T07:59:29;12.93;;;12.23;;
253;SDS011;590;48.772;8.846;2023-03-01T08:01:57;12.20;;;11.60;;
253;SDS011;590;48.772;8.846;2023-03-01T08:04:25;13.10;;;12.40;;
253;SDS011;590;48.772;8.846;2023-03-01T08:06:54;12.40;;;11.80;;
253;SDS011;590;48.772;8.846;2023-03-01T08:09:22;13.73;;;13.03;;
253;SDS011;590;48.772;8.846;2023-03-01T08:11:51;11.50;;;10.90;;
253;SDS011;590;48.772;8.846;2023-03-01T08:14:20;11.20;;;10.60;;
253;SDS011;590;48.772;8.846;2023-03-01T08:16:49;12.17;;;11.57;;
253;SDS011;590;48.772;8.846;2023-03-01T08:19:17;12.23;;;11.63;;
253;SDS011;590;48.772;8.846;2023-03-01T08:21:45;13.10;;;12.40;;
253;SDS011;590;48.772;8.846;2023-03-01T08:24:13;12.23;;;11.63;;
253;SDS011;590;48.772;8.846;2023-03-01T08:26:41;11.80;;;11.20;;
253;SDS011;590;48.772;8.846;2023-03-01T08:29:11;11.40;;;10.80;;
253;SDS011;590;48.772;8.846;2023-03-01T08:31:39;13.10;;;12.40;;
253;SDS011;590;48.772;8.846;2023-03-01T08:34:08;11.87;;;11.27;;
253;SDS011;590;48.772;8.846;2023-03-01T08:36:38;10.27;;;9.77;;
253;SDS011;590;48.772;8.846;2023-03-01T08:39:08;11.90;;;11.30;;
253;SDS011;590;48.772;8.846;2023-03-01T08:41:37;11.67;;;11.07;;
253;SDS011;590;48.772;8.846;2023-03-01T08:44:06;11.30;;;10.70;;
253;SDS011;590;48.772;8.846;2023-03-01T08:49:43;11.27;;;10.67;;
253;SDS011;590;48.772;8.846;2023-03-01T08:52:48;12.63;;;11.97;;
253;SDS011;590;48.772;8.846;2023-03-01T08:55:16;12.07;;;11.47;;
253;SDS011;590;48.772;8.846;2023-03-01T08:57:44;11.40;;;10.80;;
253;SDS011;590;48.772;8.846;2023-03-01T09:00:12;11.10;;;10.50;;
253;SDS011;590;48.772;8.846;2023-03-01T09:02:43;10.73;;;10.13;;
253;SDS011;590;48.772;8.846;2023-03-01T09:05:11;10.77;;;10.17;;
253;SDS011;590;48.772;8.846;2023-03-01T09:07:39;12.03;;;11.43;;
253;SDS011;590;48.772;8.846;2023-03-01T09:10:07;10.43;;;9.90;;
253;SDS011;590;48.772;8.846;2023-03-01T09:12:36;10.30;;;9.80;;
253;SDS011;590;48.772;8.846;2023-03-01T09:15:05;10.63;;;10.07;;
253;SDS011;590;48.772;8.846;2023-03-01T09:17:34;10.63;;;10.03;;
253;SDS011;590;48.772;8.846;2023-03-01T09:20:03;11.07;;;10.47;;
253;SDS011;590;48.772;8.846;2023-03-01T09:22:32;11.00;;;10.40;;
253;SDS011;590;48.772;8.846;2023-03-01T09:25:01;11.13;;;10.53;;
253;SDS011;590;48.772;8.846;2023-03-01T09:27:29;9.70;;;9.20;;
253;SDS011;590;48.772;8.846;2023-03-01T09:29:57;9.80;;;9.30;;
253;SDS011;590;48.772;8.846;2023-03-01T09:32:25;9.77;;;9.27;;
253;SDS011;590;48.772;8.846;2023-03-01T09:34:53;11.00;;;10.40;;
253;SDS011;590;48.772;8.846;2023-03-01T09:37:33;10.30;;;9.80;;
253;SDS011;590;48.772;8.846;2023-03-01T09:40:02;10.80;;;10.20;;
253;SDS011;590;48.772;8.846;2023-03-01T09:42:32;10.63;;;10.03;;
253;SDS011;590;48.772;8.846;2023-03-01T09:45:03;10.13;;;9.63;;
253;SDS011;590;48.772;8.846;2023-03-01T09:47:33;10.23;;;9.73;;
253;SDS011;590;48.772;8.846;2023-03-01T09:50:04;9.30;;;8.80;;
253;SDS011;590;48.772;8.846;2023-03-01T09:52:40;9.53;;;9.03;;
253;SDS011;590;48.772;8.846;2023-03-01T09:55:11;9.67;;;9.17;;
253;SDS011;590;48.772;8.846;2023-03-01T09:57:42;9.27;;;8.77;;
253;SDS011;590;48.772;8.846;2023-03-01T10:00:20;9.67;;;9.17;;
253;SDS011;590;48.772;8.846;2023-03-01T10:02:56;9.60;;;9.10;;
253;SDS011;590;48.772;8.846;2023-03-01T10:05:36;9.10;;;8.60;;
253;SDS011;590;48.772;8.846;2023-03-01T10:08:19;10.00;;;9.50;;
253;SDS011;590;48.772;8.846;2023-03-01T10:10:55;9.70;;;9.20;;
253;SDS011;590;48.772;8.846;2023-03-01T10:13:25;8.87;;;8.37;;
253;SDS011;590;48.772;8.846;2023-03-01T10:15:57;9.27;;;8.77;;
253;SDS011;590;48.772;8.846;2023-03-01T10:18:31;7.83;;;7.43;;
253;SDS011;590;48.772;8.846;2023-03-01T10:21:07;9.90;;;9.40;;
253;SDS011;590;48.772;8.846;2023-03-01T10:23:42;9.90;;;9.40;;
253;SDS011;590;48.772;8.846;2023-03-01T10:26:14;9.93;;;9.43;;
253;SDS011;590;48.772;8.846;2023-03-01T10:28:58;8.90;;;8.40;;
253;SDS011;590;48.772;8.846;2023-03-01T10:31:32;9.20;;;8.70;;
253;SDS011;590;48.772;8.846;2023-03-01T10:34:10;8.87;;;8.37;;
253;SDS011;590;48.772;8.846;2023-03-01T10:36:40;8.73;;;8.23;;
253;SDS011;590;48.772;8.846;2023-03-01T10:39:16;8.23;;;7.83;;
253;SDS011;590;48.772;8.846;2023-03-01T10:41:53;8.00;;;7.60;;
253;SDS011;590;48.772;8.846;2023-03-01T10:47:22;8.10;;;7.70;;
253;SDS011;590;48.772;8.846;2023-03-01T10:49:52;8.17;;;7.77;;
253;SDS011;590;48.772;8.846;2023-03-01T10:52:23;8.73;;;8.23;;
253;SDS011;590;48.772;8.846;2023-03-01T10:54:55;9.90;;;9.40;;
253;SDS011;590;48.772;8.846;2023-03-01T10:57:27;8.90;;;8.40;;
253;SDS011;590;48.772;8.846;2023-03-01T11:00:18;8.50;;;8.00;;
253;SDS011;590;48.772;8.846;2023-03-01T11:02:49;8.80;;;8.30;;
253;SDS011;590;48.772;8.846;2023-03-01T11:05:28;8.37;;;7.93;;
253;SDS011;590;48.772;8.846;2023-03-01T11:08:00;8.70;;;8.20;;
253;SDS011;590;48.772;8.846;2023-03-01T11:10:31;8.60;;;8.10;;
253;SDS011;590;48.772;8.846;2023-03-01T11:13:07;8.60;;;8.10;;
253;SDS011;590;48.772;8.846;2023-03-01T11:15:41;8.77;;;8.27;;
253;SDS011;590;48.772;8.846;2023-03-01T11:18:20;8.80;;;8.30;;
253;SDS011;590;48.772;8.846;2023-03-01T11:21:28;9.37;;;8.87;;
253;SDS011;590;48.772;8.846;2023-03-01T11:24:01;8.70;;;8.20;;
253;SDS011;590;48.772;8.846;2023-03-01T11:26:31;8.90;;;8.40;;
253;SDS011;590;48.772;8.846;2023-03-01T11:29:04;8.20;;;7.80;;
253;SDS011;590;48.772;8.846;2023-03-01T11:31:38;8.80;;;8.30;;
253;SDS011;590;48.772;8.846;2023-03-01T11:34:23;7.70;;;7.30;;
253;SDS011;590;48.772;8.846;2023-03-01T11:37:04;8.23;;;7.83;;
253;SDS011;590;48.772;8.846;2023-03-01T11:39:43;9.17;;;8.67;;
253;SDS011;590;48.772;8.846;2023-03-01T11:42:20;7.70;;;7.30;;
253;SDS011;590;48.772;8.846;2023-03-01T11:45:02;8.57;;;8.07;;
253;SDS011;590;48.772;8.846;2023-03-01T11:47:43;8.33;;;7.90;;
253;SDS011;590;48.772;8.846;2023-03-01T11:50:29;8.60;;;8.10;;
253;SDS011;590;48.772;8.846;2023-03-01T11:53:08;8.50;;;8.00;;
253;SDS011;590;48.772;8.846;2023-03-01T11:55:59;7.47;;;7.07;;
253;SDS011;590;48.772;8.846;2023-03-01T11:58:38;8.07;;;7.67;;
253;SDS011;590;48.772;8.846;2023-03-01T12:04:21;8.17;;;7.77;;
253;SDS011;590;48.772;8.846;2023-03-01T12:07:04;8.10;;;7.70;;
253;SDS011;590;48.772;8.846;2023-03-01T12:09:44;8.80;;;8.30;;
253;SDS011;590;48.772;8.846;2023-03-01T12:12:26;7.83;;;7.43;;
253;SDS011;590;48.772;8.846;2023-03-01T12:18:28;7.73;;;7.33;;
253;SDS011;590;48.772;8.846;2023-03-01T12:21:05;8.23;;;7.80;;
253;SDS011;590;48.772;8.846;2023-03-01T12:23:51;8.73;;;8.23;;
253;SDS011;590;48.772;8.846;2023-03-01T12:26:40;8.00;;;7.60;;
253;SDS011;590;48.772;8.846;2023-03-01T12:29:16;7.90;;;7.50;;
253;SDS011;590;48.772;8.846;2023-03-01T12:31:56;7.60;;;7.20;;
253;SDS011;590;48.772;8.846;2023-03-01T12:34:47;8.60;;;8.10;;
253;SDS011;590;48.772;8.846;2023-03-01T12:37:29;7.77;;;7.37;;
253;SDS011;590;48.772;8.846;2023-03-01T12:40:28;8.20;;;7.80;;
253;SDS011;590;48.772;8.846;2023-03-01T12:43:10;7.30;;;6.90;;
253;SDS011;590;48.772;8.846;2023-03-01T12:45:54;7.70;;;7.30;;
253;SDS011;590;48.772;8.846;2023-03-01T12:48:47;7.73;;;7.33;;
253;SDS011;590;48.772;8.846;2023-03-01T12:51:26;6.63;;;6.23;;
253;SDS011;590;48.772;8.846;2023-03-01T12:53:58;7.60;;;7.20;;
253;SDS011;590;48.772;8.846;2023-03-01T12:56:32;8.10;;;7.70;;
253;SDS011;590;48.772;8.846;2023-03-01T12:59:07;7.30;;;6.90;;
253;SDS011;590;48.772;8.846;2023-03-01T13:01:43;7.13;;;6.73;;
253;SDS011;590;48.772;8.846;2023-03-01T13:04:24;8.10;;;7.70;;
253;SDS011;590;48.772;8.846;2023-03-01T13:07:07;7.60;;;7.20;;
253;SDS011;590;48.772;8.846;2023-03-01T13:09:46;7.17;;;6.77;;
253;SDS011;590;48.772;8.846;2023-03-01T13:18:03;7.57;;;7.17;;
253;SDS011;590;48.772;8.846;2023-03-01T13:20:52;8.00;;;7.60;;
253;SDS011;590;48.772;8.846;2023-03-01T13:23:26;7.43;;;7.03;;
253;SDS011;590;48.772;8.846;2023-03-01T13:26:00;8.43;;;7.97;;
253;SDS011;590;48.772;8.846;2023-03-01T13:28:38;7.23;;;6.83;;
253;SDS011;590;48.772;8.846;2023-03-01T13:37:28;5.60;;;5.30;;
253;SDS011;590;48.772;8.846;2023-03-01T13:40:02;7.70;;;7.30;;
253;SDS011;590;48.772;8.846;2023-03-01T13:42:45;6.93;;;6.53;;
253;SDS011;590;48.772;8.846;2023-03-01T13:45:33;7.20;;;6.80;;
253;SDS011;590;48.772;8.846;2023-03-01T13:48:08;7.10;;;6.70;;
253;SDS011;590;48.772;8.846;2023-03-01T13:50:38;7.97;;;7.57;;
253;SDS011;590;48.772;8.846;2023-03-01T13:53:14;7.07;;;6.67;;
253;SDS011;590;48.772;8.846;2023-03-01T13:55:47;7.13;;;6.73;;
253;SDS011;590;48.772;8.846;2023-03-01T13:58:22;7.03;;;6.63;;
253;SDS011;590;48.772;8.846;2023-03-01T14:00:58;6.83;;;6.43;;
253;SDS011;590;48.772;8.846;2023-03-01T14:03:27;7.47;;;7.07;;
253;SDS011;590;48.772;8.846;2023-03-01T14:06:04;7.20;;;6.80;;
253;SDS011;590;48.772;8.846;2023-03-01T14:08:41;7.30;;;6.90;;
253;SDS011;590;48.772;8.846;2023-03-01T14:14:20;6.70;;;6.30;;
253;SDS011;590;48.772;8.846;2023-03-01T14:16:59;7.40;;;7.00;;
253;SDS011;590;48.772;8.846;2023-03-01T14:19:36;8.00;;;7.60;;
253;SDS011;590;48.772;8.846;2023-03-01T14:22:10;6.73;;;6.33;;
253;SDS011;590;48.772;8.846;2023-03-01T14:24:46;7.40;;;7.00;;
253;SDS011;590;48.772;8.846;2023-03-01T14:27:17;6.70;;;6.30;;
253;SDS011;590;48.772;8.846;2023-03-01T14:29:54;7.40;;;7.00;;
253;SDS011;590;48.772;8.846;2023-03-01T14:32:24;7.23;;;6.83;;
253;SDS011;590;48.772;8.846;2023-03-01T14:34:54;8.03;;;7.63;;
253;SDS011;590;48.772;8.846;2023-03-01T14:37:24;7.70;;;7.30;;
253;SDS011;590;48.772;8.846;2023-03-01T14:39:53;8.13;;;7.73;;
253;SDS011;590;48.772;8.846;2023-03-01T14:42:24;7.70;;;7.30;;
253;SDS011;590;48.772;8.846;2023-03-01T14:44:55;7.30;;;6.90;;
253;SDS011;590;48.772;8.846;2023-03-01T14:47:26;7.73;;;7.33;;
253;SDS011;590;48.772;8.846;2023-03-01T14:49:58;7.77;;;7.37;;
253;SDS011;590;48.772;8.846;2023-03-01T14:52:31;6.70;;;6.30;;
253;SDS011;590;48.772;8.846;2023-03-01T14:55:04;7.60;;;7.20;;
253;SDS011;590;48.772;8.846;2023-03-01T14:57:36;7.50;;;7.10;;
253;SDS011;590;48.772;8.846;2023-03-01T15:00:05;7.43;;;7.03;;
253;SDS011;590;48.772;8.846;2023-03-01T15:02:35;8.13;;;7.73;;
253;SDS011;590;48.772;8.846;2023-03-01T15:05:06;7.53;;;7.13;;
253;SDS011;590;48.772;8.846;2023-03-01T15:07:37;7.20;;;6.80;;
253;SDS011;590;48.772;8.846;2023-03-01T15:10:14;7.37;;;6.97;;
253;SDS011;590;48.772;8.846;2023-03-01T15:12:48;6.97;;;6.57;;
253;SDS011;590;48.772;8.846;2023-03-01T15:15:35;7.33;;;6.93;;
253;SDS011;590;48.772;8.846;2023-03-01T15:18:11;7.47;;;7.07;;
253;SDS011;590;48.772;8.846;2023-03-01T15:20:43;7.23;;;6.83;;
253;SDS011;590;48.772;8.846;2023-03-01T15:23:17;7.17;;;6.77;;
253;SDS011;590;48.772;8.846;2023-03-01T15:25:47;7.17;;;6.77;;
253;SDS011;590;48.772;8.846;2023-03-01T15:28:25;7.03;;;6.63;;
253;SDS011;590;48.772;8.846;2023-03-01T15:30:56;6.83;;;6.43;;
253;SDS011;590;48.772;8.846;2023-03-01T15:33:32;7.90;;;7.50;;
253;SDS011;590;48.772;8.846;2023-03-01T15:36:03;7.70;;;7.30;;
253;SDS011;590;48.772;8.846;2023-03-01T15:40:19;7.17;;;6.77;;
253;SDS011;590;48.772;8.846;2023-03-01T15:42:51;7.00;;;6.60;;
253;SDS011;590;48.772;8.846;2023-03-01T15:45:23;7.70;;;7.30;;
253;SDS011;590;48.772;8.846;2023-03-01T15:47:54;7.43;;;7.03;;
253;SDS011;590;48.772;8.846;2023-03-01T15:50:25;6.80;;;6.40;;
253;SDS011;590;48.772;8.846;2023-03-01T15:53:06;6.03;;;5.73;;
253;SDS011;590;48.772;8.846;2023-03-01T15:56:05;7.60;;;7.20;;
253;SDS011;590;48.772;8.846;2023-03-01T15:58:34;7.20;;;6.80;;
253;SDS011;590;48.772;8.846;2023-03-01T16:01:14;7.47;;;7.07;;
253;SDS011;590;48.772;8.846;2023-03-01T16:03:47;7.67;;;7.27;;
253;SDS011;590;48.772;8.846;2023-03-01T16:06:21;7.23;;;6.83;;
253;SDS011;590;48.772;8.846;2023-03-01T16:08:51;7.40;;;7.00;;
253;SDS011;590;48.772;8.846;2023-03-01T16:14:26;6.80;;;6.40;;
253;SDS011;590;48.772;8.846;2023-03-01T16:17:06;7.93;;;7.53;;
253;SDS011;590;48.772;8.846;2023-03-01T16:20:03;7.23;;;6.83;;
253;SDS011;590;48.772;8.846;2023-03-01T16:22:36;7.67;;;7.27;;
253;SDS011;590;48.772;8.846;2023-03-01T16:25:08;7.47;;;7.07;;
253;SDS011;590;48.772;8.846;2023-03-01T16:30:48;7.20;;;6.80;;
253;SDS011;590;48.772;8.846;2023-03-01T16:33:17;7.00;;;6.60;;
253;SDS011;590;48.772;8.846;2023-03-01T16:35:59;7.90;;;7.50;;
253;SDS011;590;48.772;8.846;2023-03-01T16:38:28;6.77;;;6.37;;
253;SDS011;590;48.772;8.846;2023-03-01T16:40:58;6.93;;;6.53;;
253;SDS011;590;48.772;8.846;2023-03-01T16:43:28;7.43;;;7.03;;
253;SDS011;590;48.772;8.846;2023-03-01T16:45:56;7.40;;;7.00;;
253;SDS011;590;48.772;8.846;2023-03-01T16:48:25;7.00;;;6.60;;
253;SDS011;590;48.772;8.846;2023-03-01T16:50:57;6.80;;;6.40;;
253;SDS011;590;48.772;8.846;2023-03-01T16:53:26;6.80;;;6.40;;
253;SDS011;590;48.772;8.846;2023-03-01T16:55:55;8.60;;;8.10;;
253;SDS011;590;48.772;8.846;2023-03-01T16:58:24;7.10;;;6.70;;
253;SDS011;590;48.772;8.846;2023-03-01T17:00:54;7.07;;;6.67;;
253;SDS011;590;48.772;8.846;2023-03-01T17:03:23;7.40;;;7.00;;